METAR Data
IDs: Format: Raw Decoded Include TAF

Data at: 0646 UTC 23 Feb 2019

PASX 230456Z AUTO 00000KT 10SM CLR M11/M13 A3038 RMK AO2 SLP299 T11111128 FZRANO
PASX 230356Z AUTO 00000KT 10SM CLR M11/M12 A3037 RMK AO2 SLP295 T11061117 FZRANO
PASX 230256Z AUTO 00000KT 10SM CLR M07/M09 A3037 RMK AO2 SLP294 T10671094 53008 FZRANO
PASX 230156Z AUTO 00000KT 10SM CLR M03/M08 A3036 RMK AO2 SLP290 T10331083 FZRANO
PASX 230056Z AUTO 08004KT 10SM CLR M02/M08 A3035 RMK AO2 SLP288 T10171083 FZRANO
PASX 222356Z AUTO 12003KT 10SM CLR M02/M08 A3034 RMK AO2 SLP286 60000 T10171083 10011 21189 50006 FZRANO
PASX 222256Z AUTO 00000KT 10SM CLR M01/M08 A3035 RMK AO2 SLP288 T10061078 FZRANO
PASX 222156Z AUTO 11003KT 10SM CLR M04/M08 A3034 RMK AO2 SLP285 T10441083 FZRANO
PASX 222056Z AUTO 00000KT 10SM CLR M06/M08 A3033 RMK AO2 SNB02E14 SLP280 P0000 60000 T10611078 53017 FZRANO
PASX 221856Z AUTO 07005KT 10SM CLR M16/M17 A3028 RMK AO2 SLP265 T11561172 FZRANO
PASX 221756Z AUTO 07003KT 10SM CLR M19/M21 A3028 RMK AO2 SLP263 60000 T11891206 11150 21194 51019 FZRANO
PASX 221656Z AUTO 07003KT 10SM CLR M19/M21 A3026 RMK AO2 SLP258 T11891211 FZRANO
PASX 221556Z AUTO 07004KT 9SM CLR M18/M20 A3024 RMK AO2 SNB1457E06B40E51 SLP252 P0000 T11831200 FZRANO
PASX 221456Z AUTO 08004KT 10SM CLR M17/M19 A3022 RMK AO2 SNB1359E09 SLP245 P0000 60000 T11721194 51017 FZRANO
PASX 221356Z AUTO 00000KT 10SM CLR M15/M17 A3021 RMK AO2 SLP240 T11501167 FZRANO
PASX 221256Z AUTO VRB03KT 10SM CLR M17/M19 A3019 RMK AO2 SLP233 T11721189 FZRANO
PASX 221156Z AUTO 00000KT 10SM CLR M16/M18 A3017 RMK AO2 SLP228 T11611178 11117 21172 53021 FZRANO
PASX 221056Z AUTO 07007KT 10SM CLR M16/M17 A3015 RMK AO2 SLP219 T11561167 FZRANO
PASX 220956Z AUTO 06003KT 10SM CLR M14/M16 A3013 RMK AO2 SLP213 T11441161 FZRANO
PASX 220856Z AUTO 05003KT 10SM CLR M15/M17 A3011 RMK AO2 SLP207 T11501167 400111150 51022 FZRANO
PASX 220756Z AUTO 07003KT 10SM CLR M13/M15 A3009 RMK AO2 SLP200 T11331150 FZRANO
PASX 220656Z AUTO 04004KT 10SM CLR M13/M14 A3007 RMK AO2 SLP194 T11281139 FZRANO
PASX 220556Z AUTO 00000KT 10SM CLR M12/M13 A3005 RMK AO2 SLP185 T11171128 11017 21117 51024 FZRANO
PASX 220456Z AUTO 00000KT 10SM CLR M09/M11 A3002 RMK AO2 SLP178 T10941111 FZRANO
PASX 220356Z AUTO 00000KT 10SM CLR M08/M10 A3000 RMK AO2 SLP169 T10831100 FZRANO
PASX 220256Z AUTO 09003KT 10SM CLR M04/M06 A2998 RMK AO2 SLP161 T10391061 53012 FZRANO
PASX 220156Z AUTO 00000KT 10SM CLR M02/M07 A2996 RMK AO2 SLP154 T10221067 FZRANO
PASX 220056Z AUTO 23004KT 10SM CLR M02/M06 A2995 RMK AO2 SLP151 T10171061 FZRANO
PASX 212356Z AUTO 23004KT 10SM CLR M02/M07 A2994 RMK AO2 UPB07E34 SLP149 P0000 60000 T10221067 10011 21106 51010 FZRANO
PASX 212256Z AUTO 00000KT 10SM CLR 01/M06 A2993 RMK AO2 UPB24E52 SLP147 P0000 T00111061 FZRANO
PASX 212156Z AUTO 00000KT 10SM CLR M01/M06 A2993 RMK AO2 SLP144 T10061061 FZRANO
PASX 212056Z AUTO 00000KT 3SM HZ CLR M02/M06 A2991 RMK AO2 SNB39E54 SLP138 P0000 60000 T10221056 51022 FZRANO
PASX 211956Z AUTO 00000KT 10SM CLR M07/M09 A2990 RMK AO2 SNB1857E07 SLP133 P0000 T10721089 FZRANO
PASX 211856Z AUTO 00000KT 9SM CLR M09/M11 A2987 RMK AO2 SNE13B43E53 SLP125 P0000 T10941106 FZRANO